Low Ground, Missouri
Current Conditions -  °F | °C
As of 12:55 AM on Thursday 23 Oct 2014 (Local Time) from KIRK Reporting Station
Clear Clear  
Wind Chill: 43°   Ceiling: Unl
Heat Index: 47°   Visibility: 10mi
Dew Point: 43°   Wind: 8mph
Humidity: 86%   Direction: 160°SSE
Pressure: 30.16"   Gusts: NA
Location:  40.2969°N, 92.7524°W
Report Text: KIRK 230555Z AUTO 16007KT 10SM CLR 08/06 A3016 RMK AO2 SLP217 T00830061 10111 20083 401780039 58009
Loading
Personal Weather Stations






























Interactive Weather Map
Tropical Storm Tracking
New forecast layout! Learn more

10-Day Weather Forecast

Advertisements
Track Severe Weather on mobile